Main page
METAR-TAF:

METAR-TAF

Airports :

Olsztyn-Mazury Airport

Olsztyn, Poland

latitude: 53-28-55N, longitude: 20-56-16E, elevation: 141 m

Current weather observation

The report was made 23 minutes ago, at 12:00 UTC
Wind 4 kt from the South/Southwest, varying between South/Southeast and West/Southwest
Temperature 21°C
Humidity 46%
Pressure 1020 hPa
Visibility 10 km or more
no clouds below 1500 m and no cumulonimbus

METAR: EPSY 211200Z 21004KT 160V240 CAVOK 21/09 Q1020

Time: 14:23 (12:23 UTC)

Forecast

The report was made 53 minutes ago, at 11:30 UTC
Forecast valid from 21 at 12 UTC to 21 at 21 UTC
Wind 5 kt from the Southwest
Visibility 10 km or more
no clouds below 1500 m and no cumulonimbus

TAF: EPSY 211130Z 2112/2121 23005KT CAVOK

Weather observations and forecasts of more than 4000 airports (METAR and TAF reports).

The available stations are represented by yellow and red dots on the map.

Hover mouse over dot to see the name of the station.

Then click to see weather observations and forecasts.

To change the map : click on the green buttons with a black cross to zoom in, on the green button with a dash to zoom out, or on the green arrows for adjacent maps.


METAR-TAF: